sensor_id;sensor_type;location;lat;lon;timestamp;temperature;humidity
10566;DHT22;5331;48.148;16.326;2022-12-07T00:00:19;5.50;1.00
10566;DHT22;5331;48.148;16.326;2022-12-07T00:02:46;5.50;1.00
10566;DHT22;5331;48.148;16.326;2022-12-07T00:05:14;5.50;1.00
10566;DHT22;5331;48.148;16.326;2022-12-07T00:07:42;5.60;1.00
10566;DHT22;5331;48.148;16.326;2022-12-07T00:10:09;5.60;1.00
10566;DHT22;5331;48.148;16.326;2022-12-07T00:12:36;5.60;1.00
10566;DHT22;5331;48.148;16.326;2022-12-07T00:15:03;5.60;1.00
10566;DHT22;5331;48.148;16.326;2022-12-07T00:17:30;5.60;1.00
10566;DHT22;5331;48.148;16.326;2022-12-07T00:19:59;5.60;1.00
10566;DHT22;5331;48.148;16.326;2022-12-07T00:22:26;5.60;1.00
10566;DHT22;5331;48.148;16.326;2022-12-07T00:24:54;5.60;1.00
10566;DHT22;5331;48.148;16.326;2022-12-07T00:27:21;5.60;1.00
10566;DHT22;5331;48.148;16.326;2022-12-07T00:29:48;5.60;1.00
10566;DHT22;5331;48.148;16.326;2022-12-07T00:32:15;5.60;1.00
10566;DHT22;5331;48.148;16.326;2022-12-07T00:34:42;5.60;1.00
10566;DHT22;5331;48.148;16.326;2022-12-07T00:37:08;5.60;1.00
10566;DHT22;5331;48.148;16.326;2022-12-07T00:39:35;5.60;1.00
10566;DHT22;5331;48.148;16.326;2022-12-07T00:42:04;5.60;1.00
10566;DHT22;5331;48.148;16.326;2022-12-07T00:44:31;5.50;1.00
10566;DHT22;5331;48.148;16.326;2022-12-07T00:46:57;5.60;1.00
10566;DHT22;5331;48.148;16.326;2022-12-07T00:49:24;5.60;1.00
10566;DHT22;5331;48.148;16.326;2022-12-07T00:51:51;5.60;1.00
10566;DHT22;5331;48.148;16.326;2022-12-07T00:54:18;5.60;1.00
10566;DHT22;5331;48.148;16.326;2022-12-07T00:56:45;5.50;1.00
10566;DHT22;5331;48.148;16.326;2022-12-07T00:59:13;5.50;1.00
10566;DHT22;5331;48.148;16.326;2022-12-07T01:01:41;5.50;1.00
10566;DHT22;5331;48.148;16.326;2022-12-07T01:04:08;5.50;1.00
10566;DHT22;5331;48.148;16.326;2022-12-07T01:06:35;5.50;1.00
10566;DHT22;5331;48.148;16.326;2022-12-07T01:09:02;5.50;1.00
10566;DHT22;5331;48.148;16.326;2022-12-07T01:11:30;5.40;1.00
10566;DHT22;5331;48.148;16.326;2022-12-07T01:13:58;5.40;1.00
10566;DHT22;5331;48.148;16.326;2022-12-07T01:16:29;5.40;1.00
10566;DHT22;5331;48.148;16.326;2022-12-07T01:18:57;5.40;1.00
10566;DHT22;5331;48.148;16.326;2022-12-07T01:21:26;5.40;1.00
10566;DHT22;5331;48.148;16.326;2022-12-07T01:23:54;5.30;1.00
10566;DHT22;5331;48.148;16.326;2022-12-07T01:26:22;5.40;1.00
10566;DHT22;5331;48.148;16.326;2022-12-07T01:28:50;5.30;1.00
10566;DHT22;5331;48.148;16.326;2022-12-07T01:31:19;5.40;1.00
10566;DHT22;5331;48.148;16.326;2022-12-07T01:33:49;5.30;1.00
10566;DHT22;5331;48.148;16.326;2022-12-07T01:36:17;5.40;1.00
10566;DHT22;5331;48.148;16.326;2022-12-07T01:38:46;5.40;1.00
10566;DHT22;5331;48.148;16.326;2022-12-07T01:41:13;5.30;1.00
10566;DHT22;5331;48.148;16.326;2022-12-07T01:44:12;5.30;1.00
10566;DHT22;5331;48.148;16.326;2022-12-07T01:46:41;5.40;1.00
10566;DHT22;5331;48.148;16.326;2022-12-07T01:49:12;5.40;1.00
10566;DHT22;5331;48.148;16.326;2022-12-07T01:51:40;5.30;1.00
10566;DHT22;5331;48.148;16.326;2022-12-07T01:54:10;5.30;1.00
10566;DHT22;5331;48.148;16.326;2022-12-07T01:56:38;5.40;1.00
10566;DHT22;5331;48.148;16.326;2022-12-07T01:59:06;5.30;1.00
10566;DHT22;5331;48.148;16.326;2022-12-07T02:01:34;5.30;1.00
10566;DHT22;5331;48.148;16.326;2022-12-07T02:04:01;5.30;1.00
10566;DHT22;5331;48.148;16.326;2022-12-07T02:06:30;5.30;1.00
10566;DHT22;5331;48.148;16.326;2022-12-07T02:08:57;5.30;1.00
10566;DHT22;5331;48.148;16.326;2022-12-07T02:11:24;5.30;1.00
10566;DHT22;5331;48.148;16.326;2022-12-07T02:13:51;5.30;1.00
10566;DHT22;5331;48.148;16.326;2022-12-07T02:16:27;5.30;1.00
10566;DHT22;5331;48.148;16.326;2022-12-07T02:19:12;5.30;1.00
10566;DHT22;5331;48.148;16.326;2022-12-07T02:21:51;5.30;1.00
10566;DHT22;5331;48.148;16.326;2022-12-07T02:24:41;5.30;1.00
10566;DHT22;5331;48.148;16.326;2022-12-07T02:27:34;5.30;1.00
10566;DHT22;5331;48.148;16.326;2022-12-07T02:30:06;5.30;1.00
10566;DHT22;5331;48.148;16.326;2022-12-07T02:32:42;5.30;1.00
10566;DHT22;5331;48.148;16.326;2022-12-07T02:35:12;5.20;1.00
10566;DHT22;5331;48.148;16.326;2022-12-07T02:37:47;5.30;1.00
10566;DHT22;5331;48.148;16.326;2022-12-07T02:40:21;5.20;1.00
10566;DHT22;5331;48.148;16.326;2022-12-07T02:42:55;5.30;1.00
10566;DHT22;5331;48.148;16.326;2022-12-07T02:45:26;5.20;1.00
10566;DHT22;5331;48.148;16.326;2022-12-07T02:47:57;5.20;1.00
10566;DHT22;5331;48.148;16.326;2022-12-07T02:50:26;5.20;1.00
10566;DHT22;5331;48.148;16.326;2022-12-07T02:52:53;5.20;1.00
10566;DHT22;5331;48.148;16.326;2022-12-07T02:55:24;5.20;1.00
10566;DHT22;5331;48.148;16.326;2022-12-07T02:58:08;5.10;1.00
10566;DHT22;5331;48.148;16.326;2022-12-07T03:00:44;5.20;1.00
10566;DHT22;5331;48.148;16.326;2022-12-07T03:03:16;5.20;1.00
10566;DHT22;5331;48.148;16.326;2022-12-07T03:05:56;5.10;1.00
10566;DHT22;5331;48.148;16.326;2022-12-07T03:08:31;5.20;1.00
10566;DHT22;5331;48.148;16.326;2022-12-07T03:11:02;5.10;1.00
10566;DHT22;5331;48.148;16.326;2022-12-07T03:13:33;5.10;1.00
10566;DHT22;5331;48.148;16.326;2022-12-07T03:16:09;5.10;1.00
10566;DHT22;5331;48.148;16.326;2022-12-07T03:18:43;5.10;1.00
10566;DHT22;5331;48.148;16.326;2022-12-07T03:21:15;5.20;1.00
10566;DHT22;5331;48.148;16.326;2022-12-07T03:23:49;5.20;1.00
10566;DHT22;5331;48.148;16.326;2022-12-07T03:26:17;5.20;1.00
10566;DHT22;5331;48.148;16.326;2022-12-07T03:28:50;5.10;1.00
10566;DHT22;5331;48.148;16.326;2022-12-07T03:31:22;5.10;1.00
10566;DHT22;5331;48.148;16.326;2022-12-07T03:33:54;5.10;1.00
10566;DHT22;5331;48.148;16.326;2022-12-07T03:36:29;5.10;1.00
10566;DHT22;5331;48.148;16.326;2022-12-07T03:39:01;5.10;1.00
10566;DHT22;5331;48.148;16.326;2022-12-07T03:41:31;5.10;1.00
10566;DHT22;5331;48.148;16.326;2022-12-07T03:43:59;5.10;1.00
10566;DHT22;5331;48.148;16.326;2022-12-07T03:46:35;5.10;1.00
10566;DHT22;5331;48.148;16.326;2022-12-07T03:49:08;5.10;1.00
10566;DHT22;5331;48.148;16.326;2022-12-07T03:51:43;5.10;1.00
10566;DHT22;5331;48.148;16.326;2022-12-07T03:54:14;5.10;1.00
10566;DHT22;5331;48.148;16.326;2022-12-07T03:56:43;5.20;1.00
10566;DHT22;5331;48.148;16.326;2022-12-07T03:59:11;5.20;1.00
10566;DHT22;5331;48.148;16.326;2022-12-07T04:05:03;5.10;1.00
10566;DHT22;5331;48.148;16.326;2022-12-07T04:07:31;5.20;1.00
10566;DHT22;5331;48.148;16.326;2022-12-07T04:09:57;5.10;1.00
10566;DHT22;5331;48.148;16.326;2022-12-07T04:12:24;5.10;1.00
10566;DHT22;5331;48.148;16.326;2022-12-07T04:14:51;5.10;1.00
10566;DHT22;5331;48.148;16.326;2022-12-07T04:17:18;5.10;1.00
10566;DHT22;5331;48.148;16.326;2022-12-07T04:19:45;5.10;1.00
10566;DHT22;5331;48.148;16.326;2022-12-07T04:22:13;5.10;1.00
10566;DHT22;5331;48.148;16.326;2022-12-07T04:24:40;5.20;1.00
10566;DHT22;5331;48.148;16.326;2022-12-07T04:27:07;5.20;1.00
10566;DHT22;5331;48.148;16.326;2022-12-07T04:29:34;5.10;1.00
10566;DHT22;5331;48.148;16.326;2022-12-07T04:32:01;5.10;1.00
10566;DHT22;5331;48.148;16.326;2022-12-07T04:34:28;5.10;1.00
10566;DHT22;5331;48.148;16.326;2022-12-07T04:36:55;5.10;1.00
10566;DHT22;5331;48.148;16.326;2022-12-07T04:39:24;5.10;1.00
10566;DHT22;5331;48.148;16.326;2022-12-07T04:41:52;5.10;1.00
10566;DHT22;5331;48.148;16.326;2022-12-07T04:44:19;5.10;1.00
10566;DHT22;5331;48.148;16.326;2022-12-07T04:46:48;5.10;1.00
10566;DHT22;5331;48.148;16.326;2022-12-07T04:49:15;5.10;1.00
10566;DHT22;5331;48.148;16.326;2022-12-07T04:51:43;5.10;1.00
10566;DHT22;5331;48.148;16.326;2022-12-07T04:54:10;5.00;1.00
10566;DHT22;5331;48.148;16.326;2022-12-07T04:56:38;5.10;1.00
10566;DHT22;5331;48.148;16.326;2022-12-07T04:59:06;5.10;1.00
10566;DHT22;5331;48.148;16.326;2022-12-07T05:01:33;5.00;1.00
10566;DHT22;5331;48.148;16.326;2022-12-07T05:04:00;5.10;1.00
10566;DHT22;5331;48.148;16.326;2022-12-07T05:06:27;5.10;1.00
10566;DHT22;5331;48.148;16.326;2022-12-07T05:08:54;5.10;1.00
10566;DHT22;5331;48.148;16.326;2022-12-07T05:11:21;5.10;1.00
10566;DHT22;5331;48.148;16.326;2022-12-07T05:14:11;5.10;1.00
10566;DHT22;5331;48.148;16.326;2022-12-07T05:16:38;5.10;1.00
10566;DHT22;5331;48.148;16.326;2022-12-07T05:19:06;5.20;1.00
10566;DHT22;5331;48.148;16.326;2022-12-07T05:21:33;5.20;1.00
10566;DHT22;5331;48.148;16.326;2022-12-07T05:24:00;5.20;1.00
10566;DHT22;5331;48.148;16.326;2022-12-07T05:26:27;5.10;1.00
10566;DHT22;5331;48.148;16.326;2022-12-07T05:28:55;5.10;1.00
10566;DHT22;5331;48.148;16.326;2022-12-07T05:31:24;5.10;1.00
10566;DHT22;5331;48.148;16.326;2022-12-07T05:33:52;5.10;1.00
10566;DHT22;5331;48.148;16.326;2022-12-07T05:36:19;5.10;1.00
10566;DHT22;5331;48.148;16.326;2022-12-07T05:38:46;5.10;1.00
10566;DHT22;5331;48.148;16.326;2022-12-07T05:41:15;5.10;1.00
10566;DHT22;5331;48.148;16.326;2022-12-07T05:43:59;5.10;1.00
10566;DHT22;5331;48.148;16.326;2022-12-07T05:46:28;5.10;1.00
10566;DHT22;5331;48.148;16.326;2022-12-07T05:48:55;5.20;1.00
10566;DHT22;5331;48.148;16.326;2022-12-07T05:51:22;5.20;1.00
10566;DHT22;5331;48.148;16.326;2022-12-07T05:53:48;5.20;1.00
10566;DHT22;5331;48.148;16.326;2022-12-07T05:56:15;5.20;1.00
10566;DHT22;5331;48.148;16.326;2022-12-07T05:58:42;5.20;1.00
10566;DHT22;5331;48.148;16.326;2022-12-07T06:01:28;5.20;1.00
10566;DHT22;5331;48.148;16.326;2022-12-07T06:03:55;5.20;1.00
10566;DHT22;5331;48.148;16.326;2022-12-07T06:06:21;5.20;1.00
10566;DHT22;5331;48.148;16.326;2022-12-07T06:08:48;5.20;1.00
10566;DHT22;5331;48.148;16.326;2022-12-07T06:11:16;5.10;1.00
10566;DHT22;5331;48.148;16.326;2022-12-07T06:14:00;5.10;1.00
10566;DHT22;5331;48.148;16.326;2022-12-07T06:16:28;5.10;1.00
10566;DHT22;5331;48.148;16.326;2022-12-07T06:18:55;5.20;1.00
10566;DHT22;5331;48.148;16.326;2022-12-07T06:21:22;5.10;1.00
10566;DHT22;5331;48.148;16.326;2022-12-07T06:23:51;5.10;1.00
10566;DHT22;5331;48.148;16.326;2022-12-07T06:26:18;5.10;1.00
10566;DHT22;5331;48.148;16.326;2022-12-07T06:28:45;5.10;1.00
10566;DHT22;5331;48.148;16.326;2022-12-07T06:31:12;5.20;1.00
10566;DHT22;5331;48.148;16.326;2022-12-07T06:33:41;5.20;1.00
10566;DHT22;5331;48.148;16.326;2022-12-07T06:36:08;5.20;1.00
10566;DHT22;5331;48.148;16.326;2022-12-07T06:38:35;5.10;1.00
10566;DHT22;5331;48.148;16.326;2022-12-07T06:41:02;5.10;1.00
10566;DHT22;5331;48.148;16.326;2022-12-07T06:43:29;5.10;1.00
10566;DHT22;5331;48.148;16.326;2022-12-07T06:45:57;5.10;1.00
10566;DHT22;5331;48.148;16.326;2022-12-07T06:48:25;5.20;1.00
10566;DHT22;5331;48.148;16.326;2022-12-07T06:50:53;5.10;1.00
10566;DHT22;5331;48.148;16.326;2022-12-07T06:53:20;5.10;1.00
10566;DHT22;5331;48.148;16.326;2022-12-07T06:55:47;5.10;1.00
10566;DHT22;5331;48.148;16.326;2022-12-07T06:58:14;5.20;1.00
10566;DHT22;5331;48.148;16.326;2022-12-07T07:00:41;5.20;1.00
10566;DHT22;5331;48.148;16.326;2022-12-07T07:03:08;5.20;1.00
10566;DHT22;5331;48.148;16.326;2022-12-07T07:05:35;5.20;1.00
10566;DHT22;5331;48.148;16.326;2022-12-07T07:08:03;5.10;1.00
10566;DHT22;5331;48.148;16.326;2022-12-07T07:10:30;5.20;1.00
10566;DHT22;5331;48.148;16.326;2022-12-07T07:12:57;5.20;1.00
10566;DHT22;5331;48.148;16.326;2022-12-07T07:15:24;5.20;1.00
10566;DHT22;5331;48.148;16.326;2022-12-07T07:17:51;5.20;1.00
10566;DHT22;5331;48.148;16.326;2022-12-07T07:20:18;5.20;1.00
10566;DHT22;5331;48.148;16.326;2022-12-07T07:22:45;5.20;1.00
10566;DHT22;5331;48.148;16.326;2022-12-07T07:25:14;5.20;1.00
10566;DHT22;5331;48.148;16.326;2022-12-07T07:27:41;5.30;1.00
10566;DHT22;5331;48.148;16.326;2022-12-07T07:30:09;5.30;1.00
10566;DHT22;5331;48.148;16.326;2022-12-07T07:32:36;5.30;1.00
10566;DHT22;5331;48.148;16.326;2022-12-07T07:35:04;5.30;1.00
10566;DHT22;5331;48.148;16.326;2022-12-07T07:37:31;5.30;1.00
10566;DHT22;5331;48.148;16.326;2022-12-07T07:39:58;5.30;1.00
10566;DHT22;5331;48.148;16.326;2022-12-07T07:42:26;5.30;1.00
10566;DHT22;5331;48.148;16.326;2022-12-07T07:44:53;5.30;1.00
10566;DHT22;5331;48.148;16.326;2022-12-07T07:47:20;5.40;1.00
10566;DHT22;5331;48.148;16.326;2022-12-07T07:49:47;5.70;1.00
10566;DHT22;5331;48.148;16.326;2022-12-07T07:52:13;5.70;1.00
10566;DHT22;5331;48.148;16.326;2022-12-07T07:54:40;5.70;1.00
10566;DHT22;5331;48.148;16.326;2022-12-07T07:57:07;5.60;1.00
10566;DHT22;5331;48.148;16.326;2022-12-07T07:59:35;5.50;1.00
10566;DHT22;5331;48.148;16.326;2022-12-07T08:02:02;5.50;1.00
10566;DHT22;5331;48.148;16.326;2022-12-07T08:04:29;5.50;1.00
10566;DHT22;5331;48.148;16.326;2022-12-07T08:06:57;5.60;1.00
10566;DHT22;5331;48.148;16.326;2022-12-07T08:09:24;5.50;1.00
10566;DHT22;5331;48.148;16.326;2022-12-07T08:11:51;5.50;1.00
10566;DHT22;5331;48.148;16.326;2022-12-07T08:14:18;5.60;1.00
10566;DHT22;5331;48.148;16.326;2022-12-07T08:16:46;5.60;1.00
10566;DHT22;5331;48.148;16.326;2022-12-07T08:19:13;5.60;1.00
10566;DHT22;5331;48.148;16.326;2022-12-07T08:21:40;5.60;1.00
10566;DHT22;5331;48.148;16.326;2022-12-07T08:24:07;5.50;1.00
10566;DHT22;5331;48.148;16.326;2022-12-07T08:26:34;5.50;1.00
10566;DHT22;5331;48.148;16.326;2022-12-07T08:29:00;5.60;1.00
10566;DHT22;5331;48.148;16.326;2022-12-07T08:31:28;5.60;1.00
10566;DHT22;5331;48.148;16.326;2022-12-07T08:33:56;5.70;1.00
10566;DHT22;5331;48.148;16.326;2022-12-07T08:36:24;5.80;1.00
10566;DHT22;5331;48.148;16.326;2022-12-07T08:38:51;5.80;1.00
10566;DHT22;5331;48.148;16.326;2022-12-07T08:41:18;5.70;1.00
10566;DHT22;5331;48.148;16.326;2022-12-07T08:43:45;5.70;1.00
10566;DHT22;5331;48.148;16.326;2022-12-07T08:46:16;5.80;1.00
10566;DHT22;5331;48.148;16.326;2022-12-07T08:48:48;5.80;1.00
10566;DHT22;5331;48.148;16.326;2022-12-07T08:51:18;5.80;1.00
10566;DHT22;5331;48.148;16.326;2022-12-07T08:53:45;5.80;1.00
10566;DHT22;5331;48.148;16.326;2022-12-07T08:56:12;5.90;1.00
10566;DHT22;5331;48.148;16.326;2022-12-07T08:58:40;5.90;1.00
10566;DHT22;5331;48.148;16.326;2022-12-07T09:01:07;5.90;1.00
10566;DHT22;5331;48.148;16.326;2022-12-07T09:03:35;5.90;1.00
10566;DHT22;5331;48.148;16.326;2022-12-07T09:06:02;5.90;1.00
10566;DHT22;5331;48.148;16.326;2022-12-07T09:08:34;5.90;1.00
10566;DHT22;5331;48.148;16.326;2022-12-07T09:11:01;6.00;1.00
10566;DHT22;5331;48.148;16.326;2022-12-07T09:13:28;6.00;1.00
10566;DHT22;5331;48.148;16.326;2022-12-07T09:15:56;6.00;1.00
10566;DHT22;5331;48.148;16.326;2022-12-07T09:18:23;6.10;1.00
10566;DHT22;5331;48.148;16.326;2022-12-07T09:20:51;6.00;1.00
10566;DHT22;5331;48.148;16.326;2022-12-07T09:23:18;6.10;1.00
10566;DHT22;5331;48.148;16.326;2022-12-07T09:25:46;6.00;1.00
10566;DHT22;5331;48.148;16.326;2022-12-07T09:28:13;5.90;1.00
10566;DHT22;5331;48.148;16.326;2022-12-07T09:30:45;5.90;1.00
10566;DHT22;5331;48.148;16.326;2022-12-07T09:33:13;5.80;1.00
10566;DHT22;5331;48.148;16.326;2022-12-07T09:35:44;5.80;1.00
10566;DHT22;5331;48.148;16.326;2022-12-07T09:38:12;5.80;1.00
10566;DHT22;5331;48.148;16.326;2022-12-07T09:40:39;6.10;1.00
10566;DHT22;5331;48.148;16.326;2022-12-07T09:43:12;6.40;1.00
10566;DHT22;5331;48.148;16.326;2022-12-07T09:45:40;6.60;1.00
10566;DHT22;5331;48.148;16.326;2022-12-07T09:48:15;6.80;1.00
10566;DHT22;5331;48.148;16.326;2022-12-07T09:50:44;7.00;1.00
10566;DHT22;5331;48.148;16.326;2022-12-07T09:53:19;7.10;1.00
10566;DHT22;5331;48.148;16.326;2022-12-07T09:55:47;7.20;1.00
10566;DHT22;5331;48.148;16.326;2022-12-07T09:58:20;7.10;1.00
10566;DHT22;5331;48.148;16.326;2022-12-07T10:00:48;7.00;1.00
10566;DHT22;5331;48.148;16.326;2022-12-07T10:03:15;6.90;1.00
10566;DHT22;5331;48.148;16.326;2022-12-07T10:05:45;6.80;1.00
10566;DHT22;5331;48.148;16.326;2022-12-07T10:08:14;6.90;1.00
10566;DHT22;5331;48.148;16.326;2022-12-07T10:10:43;7.10;1.00
10566;DHT22;5331;48.148;16.326;2022-12-07T10:13:11;7.30;1.00
10566;DHT22;5331;48.148;16.326;2022-12-07T10:15:46;7.40;1.00
10566;DHT22;5331;48.148;16.326;2022-12-07T10:18:34;7.40;1.00
10566;DHT22;5331;48.148;16.326;2022-12-07T10:21:11;7.20;1.00
10566;DHT22;5331;48.148;16.326;2022-12-07T10:23:40;6.90;1.00
10566;DHT22;5331;48.148;16.326;2022-12-07T10:26:21;6.80;1.00
10566;DHT22;5331;48.148;16.326;2022-12-07T10:28:52;6.70;1.00
10566;DHT22;5331;48.148;16.326;2022-12-07T10:31:22;6.80;1.00
10566;DHT22;5331;48.148;16.326;2022-12-07T10:33:51;6.70;1.00
10566;DHT22;5331;48.148;16.326;2022-12-07T10:36:22;6.60;1.00
10566;DHT22;5331;48.148;16.326;2022-12-07T10:38:51;6.50;1.00
10566;DHT22;5331;48.148;16.326;2022-12-07T10:41:17;6.50;1.00
10566;DHT22;5331;48.148;16.326;2022-12-07T10:43:51;6.40;1.00
10566;DHT22;5331;48.148;16.326;2022-12-07T10:46:50;6.50;1.00
10566;DHT22;5331;48.148;16.326;2022-12-07T10:49:40;6.50;1.00
10566;DHT22;5331;48.148;16.326;2022-12-07T10:52:18;6.50;1.00
10566;DHT22;5331;48.148;16.326;2022-12-07T10:55:01;6.40;1.00
10566;DHT22;5331;48.148;16.326;2022-12-07T10:57:43;6.50;1.00
10566;DHT22;5331;48.148;16.326;2022-12-07T11:00:18;6.30;1.00
10566;DHT22;5331;48.148;16.326;2022-12-07T11:03:18;6.20;1.00
10566;DHT22;5331;48.148;16.326;2022-12-07T11:05:56;6.20;1.00
10566;DHT22;5331;48.148;16.326;2022-12-07T11:08:43;6.10;1.00
10566;DHT22;5331;48.148;16.326;2022-12-07T11:11:14;6.20;1.00
10566;DHT22;5331;48.148;16.326;2022-12-07T11:13:48;6.20;1.00
10566;DHT22;5331;48.148;16.326;2022-12-07T11:16:28;6.20;1.00
10566;DHT22;5331;48.148;16.326;2022-12-07T11:19:12;6.20;1.00
10566;DHT22;5331;48.148;16.326;2022-12-07T11:21:50;6.20;1.00
10566;DHT22;5331;48.148;16.326;2022-12-07T11:24:22;6.20;1.00
10566;DHT22;5331;48.148;16.326;2022-12-07T11:27:04;6.20;1.00
10566;DHT22;5331;48.148;16.326;2022-12-07T11:29:56;6.20;1.00
10566;DHT22;5331;48.148;16.326;2022-12-07T11:32:44;6.20;1.00
10566;DHT22;5331;48.148;16.326;2022-12-07T11:35:22;6.20;1.00
10566;DHT22;5331;48.148;16.326;2022-12-07T11:37:57;6.30;1.00
10566;DHT22;5331;48.148;16.326;2022-12-07T11:40:26;6.30;1.00
10566;DHT22;5331;48.148;16.326;2022-12-07T11:42:59;6.20;1.00
10566;DHT22;5331;48.148;16.326;2022-12-07T11:45:31;6.30;1.00
10566;DHT22;5331;48.148;16.326;2022-12-07T11:48:02;6.20;1.00
10566;DHT22;5331;48.148;16.326;2022-12-07T11:50:36;6.20;1.00
10566;DHT22;5331;48.148;16.326;2022-12-07T11:53:09;6.10;1.00
10566;DHT22;5331;48.148;16.326;2022-12-07T11:55:43;6.10;1.00
10566;DHT22;5331;48.148;16.326;2022-12-07T11:58:21;5.90;1.00
10566;DHT22;5331;48.148;16.326;2022-12-07T12:00:52;5.90;1.00
10566;DHT22;5331;48.148;16.326;2022-12-07T12:03:23;6.00;1.00
10566;DHT22;5331;48.148;16.326;2022-12-07T12:05:57;6.00;1.00
10566;DHT22;5331;48.148;16.326;2022-12-07T12:08:27;6.10;1.00
10566;DHT22;5331;48.148;16.326;2022-12-07T12:11:00;6.20;1.00
10566;DHT22;5331;48.148;16.326;2022-12-07T12:13:56;6.50;1.00
10566;DHT22;5331;48.148;16.326;2022-12-07T12:16:58;6.80;1.00
10566;DHT22;5331;48.148;16.326;2022-12-07T12:19:33;6.90;1.00
10566;DHT22;5331;48.148;16.326;2022-12-07T12:22:12;6.90;1.00
10566;DHT22;5331;48.148;16.326;2022-12-07T12:24:41;7.00;1.00
10566;DHT22;5331;48.148;16.326;2022-12-07T12:27:15;7.10;1.00
10566;DHT22;5331;48.148;16.326;2022-12-07T12:29:53;7.20;1.00
10566;DHT22;5331;48.148;16.326;2022-12-07T12:32:22;7.30;1.00
10566;DHT22;5331;48.148;16.326;2022-12-07T12:35:02;7.40;1.00
10566;DHT22;5331;48.148;16.326;2022-12-07T12:37:42;7.50;1.00
10566;DHT22;5331;48.148;16.326;2022-12-07T12:43:44;7.50;1.00
10566;DHT22;5331;48.148;16.326;2022-12-07T12:46:52;7.50;1.00
10566;DHT22;5331;48.148;16.326;2022-12-07T12:49:40;7.40;1.00
10566;DHT22;5331;48.148;16.326;2022-12-07T12:58:36;7.60;1.00
10566;DHT22;5331;48.148;16.326;2022-12-07T13:07:54;7.30;1.00
10566;DHT22;5331;48.148;16.326;2022-12-07T13:10:31;7.30;1.00
10566;DHT22;5331;48.148;16.326;2022-12-07T13:13:02;7.30;1.00
10566;DHT22;5331;48.148;16.326;2022-12-07T13:15:35;7.30;1.00
10566;DHT22;5331;48.148;16.326;2022-12-07T13:18:21;7.30;1.00
10566;DHT22;5331;48.148;16.326;2022-12-07T13:20:53;7.20;1.00
10566;DHT22;5331;48.148;16.326;2022-12-07T13:23:29;7.10;1.00
10566;DHT22;5331;48.148;16.326;2022-12-07T13:26:15;7.10;1.00
10566;DHT22;5331;48.148;16.326;2022-12-07T13:28:45;7.00;1.00
10566;DHT22;5331;48.148;16.326;2022-12-07T13:31:34;6.90;1.00
10566;DHT22;5331;48.148;16.326;2022-12-07T13:34:02;6.90;1.00
10566;DHT22;5331;48.148;16.326;2022-12-07T13:36:31;6.90;1.00
10566;DHT22;5331;48.148;16.326;2022-12-07T13:39:15;6.90;1.00
10566;DHT22;5331;48.148;16.326;2022-12-07T13:41:48;7.00;1.00
10566;DHT22;5331;48.148;16.326;2022-12-07T13:44:17;7.20;1.00
10566;DHT22;5331;48.148;16.326;2022-12-07T13:46:50;7.00;1.00
10566;DHT22;5331;48.148;16.326;2022-12-07T13:49:21;7.00;1.00
10566;DHT22;5331;48.148;16.326;2022-12-07T13:51:49;6.90;1.00
10566;DHT22;5331;48.148;16.326;2022-12-07T13:54:17;6.70;1.00
10566;DHT22;5331;48.148;16.326;2022-12-07T13:56:49;6.70;1.00
10566;DHT22;5331;48.148;16.326;2022-12-07T13:59:19;6.60;1.00
10566;DHT22;5331;48.148;16.326;2022-12-07T14:01:48;6.50;1.00
10566;DHT22;5331;48.148;16.326;2022-12-07T14:04:35;6.40;1.00
10566;DHT22;5331;48.148;16.326;2022-12-07T14:07:18;6.30;1.00
10566;DHT22;5331;48.148;16.326;2022-12-07T14:09:54;6.30;1.00
10566;DHT22;5331;48.148;16.326;2022-12-07T14:12:23;6.30;1.00
10566;DHT22;5331;48.148;16.326;2022-12-07T14:14:51;6.30;1.00
10566;DHT22;5331;48.148;16.326;2022-12-07T14:17:19;6.20;1.00
10566;DHT22;5331;48.148;16.326;2022-12-07T14:19:50;6.20;1.00
10566;DHT22;5331;48.148;16.326;2022-12-07T14:22:24;6.10;1.00
10566;DHT22;5331;48.148;16.326;2022-12-07T14:27:50;6.00;1.00
10566;DHT22;5331;48.148;16.326;2022-12-07T14:30:19;5.90;1.00
10566;DHT22;5331;48.148;16.326;2022-12-07T14:32:48;5.90;1.00
10566;DHT22;5331;48.148;16.326;2022-12-07T14:35:18;5.90;1.00
10566;DHT22;5331;48.148;16.326;2022-12-07T14:37:48;5.80;1.00
10566;DHT22;5331;48.148;16.326;2022-12-07T14:40:17;5.80;1.00
10566;DHT22;5331;48.148;16.326;2022-12-07T14:42:46;5.70;1.00
10566;DHT22;5331;48.148;16.326;2022-12-07T14:45:17;5.70;1.00
10566;DHT22;5331;48.148;16.326;2022-12-07T14:47:44;5.60;1.00
10566;DHT22;5331;48.148;16.326;2022-12-07T14:50:12;5.60;1.00
10566;DHT22;5331;48.148;16.326;2022-12-07T14:52:40;5.50;1.00
10566;DHT22;5331;48.148;16.326;2022-12-07T14:55:14;5.40;1.00
10566;DHT22;5331;48.148;16.326;2022-12-07T14:57:41;5.40;1.00
10566;DHT22;5331;48.148;16.326;2022-12-07T15:00:15;5.40;1.00
10566;DHT22;5331;48.148;16.326;2022-12-07T15:02:43;5.40;1.00
10566;DHT22;5331;48.148;16.326;2022-12-07T15:05:10;5.40;1.00
10566;DHT22;5331;48.148;16.326;2022-12-07T15:07:37;5.40;1.00
10566;DHT22;5331;48.148;16.326;2022-12-07T15:10:05;5.30;1.00
10566;DHT22;5331;48.148;16.326;2022-12-07T15:12:32;5.30;1.00
10566;DHT22;5331;48.148;16.326;2022-12-07T15:14:59;5.30;1.00
10566;DHT22;5331;48.148;16.326;2022-12-07T15:17:28;5.30;1.00
10566;DHT22;5331;48.148;16.326;2022-12-07T15:19:55;5.30;1.00
10566;DHT22;5331;48.148;16.326;2022-12-07T15:22:22;5.30;1.00
10566;DHT22;5331;48.148;16.326;2022-12-07T15:24:49;5.30;1.00
10566;DHT22;5331;48.148;16.326;2022-12-07T15:27:16;5.30;1.00
10566;DHT22;5331;48.148;16.326;2022-12-07T15:29:43;5.30;1.00
10566;DHT22;5331;48.148;16.326;2022-12-07T15:32:09;5.20;1.00
10566;DHT22;5331;48.148;16.326;2022-12-07T15:34:39;5.20;1.00
10566;DHT22;5331;48.148;16.326;2022-12-07T15:37:06;5.20;1.00
10566;DHT22;5331;48.148;16.326;2022-12-07T15:39:33;5.10;1.00
10566;DHT22;5331;48.148;16.326;2022-12-07T15:42:00;5.00;1.00
10566;DHT22;5331;48.148;16.326;2022-12-07T15:44:27;5.00;1.00
10566;DHT22;5331;48.148;16.326;2022-12-07T15:47:12;4.80;1.00
10566;DHT22;5331;48.148;16.326;2022-12-07T15:49:40;4.80;1.00
10566;DHT22;5331;48.148;16.326;2022-12-07T15:52:07;4.80;1.00
10566;DHT22;5331;48.148;16.326;2022-12-07T15:54:34;4.70;1.00
10566;DHT22;5331;48.148;16.326;2022-12-07T15:57:01;4.70;1.00
10566;DHT22;5331;48.148;16.326;2022-12-07T15:59:28;4.70;1.00
10566;DHT22;5331;48.148;16.326;2022-12-07T16:01:55;4.60;1.00
10566;DHT22;5331;48.148;16.326;2022-12-07T16:04:22;4.60;1.00
10566;DHT22;5331;48.148;16.326;2022-12-07T16:06:50;4.60;1.00
10566;DHT22;5331;48.148;16.326;2022-12-07T16:09:17;4.50;1.00
10566;DHT22;5331;48.148;16.326;2022-12-07T16:11:44;4.40;1.00
10566;DHT22;5331;48.148;16.326;2022-12-07T16:14:11;4.30;1.00
10566;DHT22;5331;48.148;16.326;2022-12-07T16:16:38;4.30;1.00
10566;DHT22;5331;48.148;16.326;2022-12-07T16:19:07;4.30;1.00
10566;DHT22;5331;48.148;16.326;2022-12-07T16:21:34;4.20;1.00
10566;DHT22;5331;48.148;16.326;2022-12-07T16:24:04;4.20;1.00
10566;DHT22;5331;48.148;16.326;2022-12-07T16:26:32;4.20;1.00
10566;DHT22;5331;48.148;16.326;2022-12-07T16:28:58;4.10;1.00
10566;DHT22;5331;48.148;16.326;2022-12-07T16:31:26;4.10;1.00
10566;DHT22;5331;48.148;16.326;2022-12-07T16:33:55;4.00;1.00
10566;DHT22;5331;48.148;16.326;2022-12-07T16:36:23;3.90;1.00
10566;DHT22;5331;48.148;16.326;2022-12-07T16:38:52;3.90;1.00
10566;DHT22;5331;48.148;16.326;2022-12-07T16:41:21;3.90;1.00
10566;DHT22;5331;48.148;16.326;2022-12-07T16:43:48;4.00;1.00
10566;DHT22;5331;48.148;16.326;2022-12-07T16:46:16;4.00;1.00